Time;durP1;ratioP1;P1;durP2;ratioP2;P2;SDS_P1;SDS_P2;PMS_P1;PMS_P2;Temp;Humidity;BMP_temperature;BMP_pressure;BME280_temperature;BME280_humidity;BME280_pressure;Samples;Min_cycle;Max_cycle;Signal;HPM_P1;HPM_P2
2023/04/28 00:02:04;;;;;;;;;;;;;;;21.05;37.25;101457.88;5117835;27;19911;-68
2023/04/28 00:04:29;;;;;;;;;;;;;;;21.04;37.43;101445.38;5139375;27;20038;-68
2023/04/28 00:06:54;;;;;;;;;;;;;;;21.04;37.36;101439.13;5134271;27;20395;-68
2023/04/28 00:09:19;;;;;;;;;;;;;;;21.03;37.33;101445.56;5136259;27;19918;-68
2023/04/28 00:11:45;;;;;;;;;;;;;;;21.02;37.42;101443.84;5131634;27;19916;-68
2023/04/28 00:14:10;;;;;;;;;;;;;;;21.00;37.32;101426.97;5132874;27;20011;-68
2023/04/28 00:16:36;;;;;;;;;;;;;;;21.00;37.34;101418.88;5134221;27;19915;-68
2023/04/28 00:19:01;;;;;;;;;;;;;;;20.99;37.36;101417.19;5133372;27;19919;-68
2023/04/28 00:21:27;;;;;;;;;;;;;;;20.97;37.40;101409.22;5120277;27;19918;-68
2023/04/28 00:23:52;;;;;;;;;;;;;;;20.96;37.39;101404.84;5119892;27;20002;-68
2023/04/28 00:26:17;;;;;;;;;;;;;;;20.95;37.44;101401.28;5135642;27;19956;-68
2023/04/28 00:28:43;;;;;;;;;;;;;;;20.94;37.36;101399.63;5133196;27;19922;-68
2023/04/28 00:31:11;;;;;;;;;;;;;;;20.92;37.10;101401.63;5140933;27;19915;-68
2023/04/28 00:33:37;;;;;;;;;;;;;;;20.92;37.31;101403.50;5132977;27;19918;-68
2023/04/28 00:36:02;;;;;;;;;;;;;;;20.91;37.43;101393.69;5135864;27;19974;-68
2023/04/28 00:38:27;;;;;;;;;;;;;;;20.90;37.42;101392.84;5135029;27;19911;-68
2023/04/28 00:40:52;;;;;;;;;;;;;;;20.89;37.30;101384.91;5133366;27;19915;-68
2023/04/28 00:43:18;;;;;;;;;;;;;;;20.87;37.32;101368.03;5134384;27;19962;-68
2023/04/28 00:45:43;;;;;;;;;;;;;;;20.86;37.39;101374.44;5132569;27;19921;-68
2023/04/28 00:48:08;;;;;;;;;;;;;;;20.86;37.25;101369.03;5131286;27;19922;-68
2023/04/28 00:50:33;;;;;;;;;;;;;;;20.85;37.09;101362.78;5126742;27;19915;-68
2023/04/28 00:52:59;;;;;;;;;;;;;;;20.83;37.38;101351.31;5136335;27;19964;-68
2023/04/28 00:55:24;;;;;;;;;;;;;;;20.82;37.07;101344.22;5129771;27;20002;-68
2023/04/28 00:57:49;;;;;;;;;;;;;;;20.82;37.01;101348.78;5105865;27;19912;-68
2023/04/28 01:00:15;;;;;;;;;;;;;;;20.80;37.08;101348.94;5134651;27;20054;-68
2023/04/28 01:02:40;;;;;;;;;;;;;;;20.80;37.35;101348.09;5126967;27;19917;-68
2023/04/28 01:05:05;;;;;;;;;;;;;;;20.78;37.04;101348.28;5123798;27;19947;-68
2023/04/28 01:07:30;;;;;;;;;;;;;;;20.78;37.18;101355.53;5126369;27;19937;-68
2023/04/28 01:09:55;;;;;;;;;;;;;;;20.76;37.15;101347.56;5133472;27;19919;-68
2023/04/28 01:12:21;;;;;;;;;;;;;;;20.74;37.26;101344.22;5130031;27;19911;-68
2023/04/28 01:14:46;;;;;;;;;;;;;;;20.74;37.18;101352.31;5132947;27;19924;-68
2023/04/28 01:17:11;;;;;;;;;;;;;;;20.71;37.25;101331.88;5132169;27;19944;-68
2023/04/28 01:19:36;;;;;;;;;;;;;;;20.72;37.02;101338.13;5132836;27;20410;-68
2023/04/28 01:22:02;;;;;;;;;;;;;;;20.70;37.28;101332.06;5132721;27;19959;-68
2023/04/28 01:24:27;;;;;;;;;;;;;;;20.68;37.33;101340.31;5136832;27;19951;-68
2023/04/28 01:26:52;;;;;;;;;;;;;;;20.68;37.10;101343.03;5132883;27;19915;-68
2023/04/28 01:29:17;;;;;;;;;;;;;;;20.66;37.27;101334.25;5132414;27;19915;-68
2023/04/28 01:31:42;;;;;;;;;;;;;;;20.64;37.21;101328.16;5137492;27;19912;-68
2023/04/28 01:34:08;;;;;;;;;;;;;;;20.64;37.23;101333.56;5130353;27;19919;-68
2023/04/28 01:36:33;;;;;;;;;;;;;;;20.63;37.11;101331.88;5133584;27;19915;-68
2023/04/28 01:38:58;;;;;;;;;;;;;;;20.62;37.04;101327.50;5132221;27;19911;-68
2023/04/28 01:41:23;;;;;;;;;;;;;;;20.61;37.16;101328.53;5131217;27;20423;-69
2023/04/28 01:43:49;;;;;;;;;;;;;;;20.59;36.98;101325.13;5131364;27;19919;-68
2023/04/28 01:46:14;;;;;;;;;;;;;;;20.58;37.24;101323.44;5134459;27;19916;-68
2023/04/28 01:48:39;;;;;;;;;;;;;;;20.58;37.09;101317.22;5130854;27;19918;-68
2023/04/28 01:51:05;;;;;;;;;;;;;;;20.58;37.33;101314.50;5136357;27;19919;-68
2023/04/28 01:53:30;;;;;;;;;;;;;;;20.56;37.12;101313.81;5137154;27;19919;-68
2023/04/28 01:55:57;;;;;;;;;;;;;;;20.55;37.39;101314.84;5129674;27;19959;-68
2023/04/28 01:58:22;;;;;;;;;;;;;;;20.54;37.33;101313.16;5141294;27;19919;-68
2023/04/28 02:00:47;;;;;;;;;;;;;;;20.53;36.95;101306.06;5132059;27;19916;-68
2023/04/28 02:03:13;;;;;;;;;;;;;;;20.51;37.32;101303.53;5131136;27;19963;-68
2023/04/28 02:05:38;;;;;;;;;;;;;;;20.50;37.22;101309.94;5134283;27;19919;-68
2023/04/28 02:08:03;;;;;;;;;;;;;;;20.49;37.24;101302.88;5130666;27;19919;-68
2023/04/28 02:10:28;;;;;;;;;;;;;;;20.49;37.05;101300.16;5130258;27;19960;-68
2023/04/28 02:12:53;;;;;;;;;;;;;;;20.46;37.28;101295.06;5129925;27;19915;-68
2023/04/28 02:15:19;;;;;;;;;;;;;;;20.45;36.99;101299.63;5132059;27;20343;-67
2023/04/28 02:17:44;;;;;;;;;;;;;;;20.44;37.05;101300.63;5109220;27;19967;-68
2023/04/28 02:20:09;;;;;;;;;;;;;;;20.43;37.29;101304.38;5136383;27;20296;-68
2023/04/28 02:22:35;;;;;;;;;;;;;;;20.42;37.18;101297.25;5130990;27;19918;-68
2023/04/28 02:25:00;;;;;;;;;;;;;;;20.41;37.18;101297.44;5135949;27;19937;-68
2023/04/28 02:27:25;;;;;;;;;;;;;;;20.41;37.31;101289.31;5134361;27;19961;-68
2023/04/28 02:29:51;;;;;;;;;;;;;;;20.40;37.24;101290.34;5130229;27;19912;-68
2023/04/28 02:32:16;;;;;;;;;;;;;;;20.38;37.08;101290.50;5134556;27;19991;-68
2023/04/28 02:34:41;;;;;;;;;;;;;;;20.37;37.14;101288.81;5129697;27;19915;-68
2023/04/28 02:37:07;;;;;;;;;;;;;;;20.36;37.03;101284.44;5128502;27;19961;-68
2023/04/28 02:39:32;;;;;;;;;;;;;;;20.35;37.24;101282.75;5130006;27;19919;-68
2023/04/28 02:41:57;;;;;;;;;;;;;;;20.33;37.19;101278.53;5131860;27;19919;-68
2023/04/28 02:44:22;;;;;;;;;;;;;;;20.32;37.11;101271.44;5129674;27;19916;-68
2023/04/28 02:46:47;;;;;;;;;;;;;;;20.31;37.54;101262.50;5131565;27;20424;-68
2023/04/28 02:49:13;;;;;;;;;;;;;;;20.32;37.12;101266.03;5131937;27;19918;-68
2023/04/28 02:51:38;;;;;;;;;;;;;;;20.30;37.31;101257.25;5134412;27;19946;-68
2023/04/28 02:54:03;;;;;;;;;;;;;;;19.82;37.12;101180.66;5136815;27;19960;-68
2023/04/28 02:56:29;;;;;;;;;;;;;;;20.27;37.25;101253.03;5128979;28;19919;-68
2023/04/28 02:58:54;;;;;;;;;;;;;;;20.27;37.45;101254.91;5131749;28;20022;-68
2023/04/28 03:01:19;;;;;;;;;;;;;;;20.27;37.15;101249.50;5130143;28;19915;-68
2023/04/28 03:03:44;;;;;;;;;;;;;;;20.26;37.39;101242.41;5129221;28;19912;-68
2023/04/28 03:06:10;;;;;;;;;;;;;;;20.25;37.26;101257.75;5131995;28;19920;-68
2023/04/28 03:08:35;;;;;;;;;;;;;;;20.24;37.30;101245.28;5130825;28;20299;-68
2023/04/28 03:11:00;;;;;;;;;;;;;;;20.23;37.22;101243.59;5127744;28;19912;-69
2023/04/28 03:13:26;;;;;;;;;;;;;;;20.22;37.20;101236.53;5130452;28;19920;-69
2023/04/28 03:15:51;;;;;;;;;;;;;;;20.21;37.45;101232.94;5132707;28;19912;-68
2023/04/28 03:18:17;;;;;;;;;;;;;;;20.20;37.27;101231.28;5129856;28;19915;-68
2023/04/28 03:20:42;;;;;;;;;;;;;;;20.19;37.52;101224.19;5123671;28;19917;-68
2023/04/28 03:23:07;;;;;;;;;;;;;;;20.18;37.54;101224.38;5128943;28;20285;-68
2023/04/28 03:25:33;;;;;;;;;;;;;;;20.18;37.67;101213.56;5134582;28;20628;-68
2023/04/28 03:27:58;;;;;;;;;;;;;;;20.16;37.37;101205.63;5132824;28;19954;-68
2023/04/28 03:30:23;;;;;;;;;;;;;;;20.16;37.57;101202.09;5129216;28;19916;-68
2023/04/28 03:32:48;;;;;;;;;;;;;;;20.15;37.50;101198.53;5131150;28;19916;-68
2023/04/28 03:35:13;;;;;;;;;;;;;;;20.15;37.54;101197.69;5128238;28;19915;-68
2023/04/28 03:37:38;;;;;;;;;;;;;;;20.12;37.34;101185.38;5128410;28;20123;-68
2023/04/28 03:40:04;;;;;;;;;;;;;;;20.13;37.60;101183.50;5129461;28;19916;-68
2023/04/28 03:42:29;;;;;;;;;;;;;;;20.11;37.40;101181.00;5132864;28;19923;-68
2023/04/28 03:44:55;;;;;;;;;;;;;;;20.11;37.67;101177.47;5128574;28;19920;-68
2023/04/28 03:47:20;;;;;;;;;;;;;;;20.10;37.64;101178.47;5134215;28;19927;-68
2023/04/28 03:49:45;;;;;;;;;;;;;;;20.10;37.65;101178.47;5130344;27;19912;-68
2023/04/28 03:52:10;;;;;;;;;;;;;;;20.08;37.57;101173.22;5132913;28;19926;-68
2023/04/28 03:54:35;;;;;;;;;;;;;;;20.07;37.56;101174.25;5135373;28;19919;-68
2023/04/28 03:57:01;;;;;;;;;;;;;;;20.06;37.41;101174.44;5129612;28;19911;-68
2023/04/28 03:59:26;;;;;;;;;;;;;;;20.06;37.41;101164.47;5131013;28;19941;-68
2023/04/28 04:01:51;;;;;;;;;;;;;;;20.06;37.65;101172.56;5131870;27;19912;-68
2023/04/28 04:04:16;;;;;;;;;;;;;;;20.04;37.66;101166.47;5134094;27;19926;-68
2023/04/28 04:06:41;;;;;;;;;;;;;;;20.04;37.43;101165.66;5133072;27;19911;-68
2023/04/28 04:09:07;;;;;;;;;;;;;;;20.02;37.51;101168.53;5134366;27;19937;-68
2023/04/28 04:11:32;;;;;;;;;;;;;;;20.01;37.67;101164.16;5130850;27;20006;-68
2023/04/28 04:13:57;;;;;;;;;;;;;;;20.00;37.44;101167.84;5135387;27;19920;-68
2023/04/28 04:16:22;;;;;;;;;;;;;;;20.00;37.64;101159.75;5137406;27;19911;-68
2023/04/28 04:18:47;;;;;;;;;;;;;;;20.00;37.51;101153.50;5134403;27;19985;-68
2023/04/28 04:21:12;;;;;;;;;;;;;;;19.97;37.78;101158.25;5141679;27;19933;-68
2023/04/28 04:23:39;;;;;;;;;;;;;;;19.98;37.45;101150.97;5131287;27;20297;-68
2023/04/28 04:26:05;;;;;;;;;;;;;;;19.97;37.66;101149.31;5135828;27;19919;-68
2023/04/28 04:28:30;;;;;;;;;;;;;;;19.97;37.76;101157.41;5135570;27;19982;-68
2023/04/28 04:30:55;;;;;;;;;;;;;;;19.95;37.66;101149.44;5131825;27;20006;-68
2023/04/28 04:33:20;;;;;;;;;;;;;;;19.95;37.67;101146.75;5132938;27;20275;-68
2023/04/28 04:35:46;;;;;;;;;;;;;;;19.94;37.58;101141.53;5132476;27;19911;-68
2023/04/28 04:38:11;;;;;;;;;;;;;;;19.93;37.72;101138.00;5132365;27;19938;-68
2023/04/28 04:40:36;;;;;;;;;;;;;;;19.92;37.69;101133.63;5112789;28;19920;-68
2023/04/28 04:43:01;;;;;;;;;;;;;;;19.92;37.86;101130.06;5137995;27;19915;-68
2023/04/28 04:45:27;;;;;;;;;;;;;;;19.91;37.81;101129.22;5130659;27;19920;-68
2023/04/28 04:47:52;;;;;;;;;;;;;;;19.91;37.69;101115.72;5139904;27;19918;-68
2023/04/28 04:50:17;;;;;;;;;;;;;;;19.90;37.56;101113.22;5123407;27;19923;-68
2023/04/28 04:52:42;;;;;;;;;;;;;;;19.89;37.96;101106.97;5133530;27;19920;-73
2023/04/28 04:55:10;;;;;;;;;;;;;;;19.89;37.69;101112.38;5134015;27;19912;-68
2023/04/28 04:57:35;;;;;;;;;;;;;;;19.89;37.92;101106.13;5132146;27;19943;-68
2023/04/28 05:00:00;;;;;;;;;;;;;;;19.89;38.17;101108.81;5134603;27;19922;-69
2023/04/28 05:02:25;;;;;;;;;;;;;;;19.89;38.06;101114.22;5134334;27;19912;-68
2023/04/28 05:04:50;;;;;;;;;;;;;;;19.88;38.06;101108.00;5132440;27;20057;-68
2023/04/28 05:07:15;;;;;;;;;;;;;;;19.88;37.97;101109.81;5115655;27;19911;-68
2023/04/28 05:09:40;;;;;;;;;;;;;;;19.88;38.15;101101.72;5133161;27;19912;-68
2023/04/28 05:12:06;;;;;;;;;;;;;;;19.87;38.09;101108.97;5131187;27;19920;-69
2023/04/28 05:14:31;;;;;;;;;;;;;;;19.87;37.99;101106.28;5133413;27;19919;-72
2023/04/28 05:16:56;;;;;;;;;;;;;;;19.88;38.50;101102.59;5135538;27;20287;-70
2023/04/28 05:19:22;;;;;;;;;;;;;;;19.88;38.46;101102.59;5130101;27;19918;-70
2023/04/28 05:21:47;;;;;;;;;;;;;;;19.89;38.49;101100.72;5116504;27;19942;-70
2023/04/28 05:24:13;;;;;;;;;;;;;;;19.88;38.65;101099.91;5135548;27;19919;-70
2023/04/28 05:26:38;;;;;;;;;;;;;;;19.89;38.56;101100.72;5130844;27;19912;-71
2023/04/28 05:29:03;;;;;;;;;;;;;;;19.89;38.82;101098.88;5132498;27;19912;-72
2023/04/28 05:31:29;;;;;;;;;;;;;;;19.89;38.89;101101.56;5132229;27;19912;-70
2023/04/28 05:33:54;;;;;;;;;;;;;;;19.89;38.87;101100.72;5134941;27;20014;-71
2023/04/28 05:36:19;;;;;;;;;;;;;;;19.90;38.96;101097.84;5131031;27;19915;-73
2023/04/28 05:38:44;;;;;;;;;;;;;;;19.90;39.04;101097.00;5132507;27;19912;-72
2023/04/28 05:41:10;;;;;;;;;;;;;;;19.90;39.02;101092.47;5129978;27;19916;-72
2023/04/28 05:43:36;;;;;;;;;;;;;;;19.90;39.06;101092.47;5133500;27;19918;-69
2023/04/28 05:46:01;;;;;;;;;;;;;;;19.91;38.94;101087.91;5124379;28;19919;-68
2023/04/28 05:48:26;;;;;;;;;;;;;;;19.92;38.83;101086.88;5125555;27;19923;-69
2023/04/28 05:50:51;;;;;;;;;;;;;;;19.93;38.63;101080.50;5132698;27;19915;-69
2023/04/28 05:53:16;;;;;;;;;;;;;;;19.92;38.85;101076.97;5130124;27;19926;-70
2023/04/28 05:55:42;;;;;;;;;;;;;;;19.94;38.86;101074.91;5133138;27;19915;-70
2023/04/28 05:58:08;;;;;;;;;;;;;;;19.95;38.98;101079.28;5115201;27;20008;-72
2023/04/28 06:00:33;;;;;;;;;;;;;;;19.96;38.98;101080.13;5114794;27;19918;-72
2023/04/28 06:02:58;;;;;;;;;;;;;;;19.96;39.03;101083.69;5126539;27;19912;-72
2023/04/28 06:05:23;;;;;;;;;;;;;;;19.98;38.95;101086.22;5132879;27;19983;-72
2023/04/28 06:07:49;;;;;;;;;;;;;;;19.99;39.09;101085.19;5125986;27;19915;-72
2023/04/28 06:10:14;;;;;;;;;;;;;;;20.00;38.92;101086.88;5136258;27;20012;-72
2023/04/28 06:12:39;;;;;;;;;;;;;;;20.02;38.88;101082.16;5135231;27;19933;-72
2023/04/28 06:15:05;;;;;;;;;;;;;;;20.04;38.88;101092.78;5121911;27;19920;-73
2023/04/28 06:17:32;;;;;;;;;;;;;;;20.05;39.14;101106.13;5116175;27;19922;-71
2023/04/28 06:19:58;;;;;;;;;;;;;;;20.06;39.30;101101.56;5130153;27;19933;-70
2023/04/28 06:22:23;;;;;;;;;;;;;;;20.07;39.05;101105.94;5128415;27;19919;-70
2023/04/28 06:24:48;;;;;;;;;;;;;;;20.09;38.96;101098.50;5135951;27;19923;-70
2023/04/28 06:27:13;;;;;;;;;;;;;;;20.10;38.77;101095.63;5132053;27;19915;-70
2023/04/28 06:29:38;;;;;;;;;;;;;;;20.10;38.70;101106.44;5130270;27;19912;-70
2023/04/28 06:32:04;;;;;;;;;;;;;;;20.12;38.96;101106.25;5130385;27;19954;-71
2023/04/28 06:34:30;;;;;;;;;;;;;;;20.13;38.72;101097.97;5130641;27;20016;-70
2023/04/28 06:36:57;;;;;;;;;;;;;;;20.13;38.61;101095.28;5131465;27;19924;-68
2023/04/28 06:39:22;;;;;;;;;;;;;;;20.15;38.76;101092.41;5130523;27;19983;-69
2023/04/28 06:41:47;;;;;;;;;;;;;;;20.16;38.69;101096.81;5127773;27;19911;-69
2023/04/28 06:44:12;;;;;;;;;;;;;;;20.16;38.70;101097.63;5134877;27;19926;-69
2023/04/28 06:46:38;;;;;;;;;;;;;;;20.18;38.40;101102.88;5127669;27;19923;-69
2023/04/28 06:49:03;;;;;;;;;;;;;;;20.18;38.65;101103.72;5139015;27;19912;-68
2023/04/28 06:51:31;;;;;;;;;;;;;;;20.19;38.45;101096.47;5131020;27;20346;-69
2023/04/28 06:53:56;;;;;;;;;;;;;;;20.20;38.61;101074.69;5130412;27;19960;-69
2023/04/28 06:56:22;;;;;;;;;;;;;;;20.20;38.38;101053.09;5132027;27;19919;-68
2023/04/28 06:58:47;;;;;;;;;;;;;;;20.22;38.44;101058.31;5133064;27;19931;-68
2023/04/28 07:01:12;;;;;;;;;;;;;;;20.23;38.34;101046.50;5131850;27;19915;-68
2023/04/28 07:03:38;;;;;;;;;;;;;;;20.24;38.33;101058.97;5135331;28;19912;-68
2023/04/28 07:06:03;;;;;;;;;;;;;;;20.26;38.25;101053.41;5130631;27;20048;-68
2023/04/28 07:08:29;;;;;;;;;;;;;;;20.26;38.29;101046.13;5120503;27;19918;-69
2023/04/28 07:10:54;;;;;;;;;;;;;;;20.28;38.58;101045.97;5135235;28;20261;-69
2023/04/28 07:13:20;;;;;;;;;;;;;;;20.30;38.54;101049.34;5132223;28;19941;-68
2023/04/28 07:15:45;;;;;;;;;;;;;;;20.32;38.18;101050.84;5132920;27;19911;-69
2023/04/28 07:18:10;;;;;;;;;;;;;;;20.35;38.35;101058.63;5135735;27;19954;-68
2023/04/28 07:20:36;;;;;;;;;;;;;;;20.37;38.04;101055.72;5129828;27;19926;-69
2023/04/28 07:23:01;;;;;;;;;;;;;;;20.39;38.21;101056.38;5133184;28;20008;-69
2023/04/28 07:25:26;;;;;;;;;;;;;;;20.41;38.44;101054.38;5128235;28;19958;-69
2023/04/28 07:27:53;;;;;;;;;;;;;;;20.42;38.34;101050.63;5129108;27;19918;-68
2023/04/28 07:30:18;;;;;;;;;;;;;;;20.44;38.09;101054.03;5129393;28;20017;-70
2023/04/28 07:32:43;;;;;;;;;;;;;;;20.46;38.13;101049.28;5133910;28;19923;-69
2023/04/28 07:35:08;;;;;;;;;;;;;;;20.48;38.04;101050.00;5130784;27;19918;-69
2023/04/28 07:37:33;;;;;;;;;;;;;;;20.51;38.20;101056.88;5140736;27;19912;-69
2023/04/28 07:39:58;;;;;;;;;;;;;;;20.52;38.11;101051.31;5135913;27;19919;-69
2023/04/28 07:42:24;;;;;;;;;;;;;;;20.55;38.15;101050.09;5139074;27;20011;-70
2023/04/28 07:44:49;;;;;;;;;;;;;;;20.57;37.94;101042.69;5121591;27;20022;-69
2023/04/28 07:47:14;;;;;;;;;;;;;;;20.59;38.01;101054.16;5133908;27;19916;-69
2023/04/28 07:49:39;;;;;;;;;;;;;;;20.60;38.17;101047.72;5135028;27;19922;-69
2023/04/28 07:52:05;;;;;;;;;;;;;;;20.62;37.92;101043.84;5133239;27;20384;-70
2023/04/28 07:54:30;;;;;;;;;;;;;;;20.65;37.83;101048.06;5133996;27;19922;-70
2023/04/28 07:56:56;;;;;;;;;;;;;;;20.66;37.84;101037.06;5134265;27;19912;-70
2023/04/28 07:59:22;;;;;;;;;;;;;;;20.70;37.91;101040.25;5137873;27;19911;-70
2023/04/28 08:01:47;;;;;;;;;;;;;;;20.72;37.83;101030.94;5131612;27;19967;-69
2023/04/28 08:04:12;;;;;;;;;;;;;;;20.75;37.88;101029.75;5139731;27;19915;-69
2023/04/28 08:06:38;;;;;;;;;;;;;;;20.77;37.83;101033.09;5137287;27;19983;-69
2023/04/28 08:09:05;;;;;;;;;;;;;;;20.81;38.01;101047.09;5115861;27;19919;-69
2023/04/28 08:11:30;;;;;;;;;;;;;;;20.83;37.66;101050.47;5136526;27;19919;-69
2023/04/28 08:14:00;;;;;;;;;;;;;;;20.85;37.78;101043.84;5133478;27;19987;-68
2023/04/28 08:16:25;;;;;;;;;;;;;;;20.88;37.89;101039.97;5135262;27;19984;-69
2023/04/28 08:18:50;;;;;;;;;;;;;;;20.89;38.00;101047.88;5133403;27;19916;-69
2023/04/28 08:21:15;;;;;;;;;;;;;;;20.91;37.86;101045.88;5127306;27;19911;-69
2023/04/28 08:23:40;;;;;;;;;;;;;;;20.93;37.89;101051.91;5133133;27;19912;-72
2023/04/28 08:26:06;;;;;;;;;;;;;;;20.95;38.10;101047.19;5119015;27;19966;-71
2023/04/28 08:28:32;;;;;;;;;;;;;;;20.98;38.10;101037.88;5115767;28;20002;-71
2023/04/28 08:30:58;;;;;;;;;;;;;;;20.99;38.24;101034.16;5135001;27;19919;-68
2023/04/28 08:33:23;;;;;;;;;;;;;;;21.01;38.10;101026.72;5138321;27;19916;-68
2023/04/28 08:35:49;;;;;;;;;;;;;;;21.04;38.23;101029.06;5133530;27;20001;-68
2023/04/28 08:38:16;;;;;;;;;;;;;;;21.06;38.18;101031.56;5134234;27;19919;-68
2023/04/28 08:40:41;;;;;;;;;;;;;;;21.08;38.15;101034.94;5132615;27;19923;-68
2023/04/28 08:43:09;;;;;;;;;;;;;;;21.10;37.98;101028.31;5132197;27;20660;-69
2023/04/28 08:45:34;;;;;;;;;;;;;;;21.13;38.03;101027.13;5134929;27;19977;-69
2023/04/28 08:47:59;;;;;;;;;;;;;;;21.15;38.14;101033.19;5115153;27;19919;-69
2023/04/28 08:50:25;;;;;;;;;;;;;;;21.17;37.86;101031.16;5134502;27;19916;-68
2023/04/28 08:52:50;;;;;;;;;;;;;;;21.19;37.98;101029.94;5132658;27;19919;-68
2023/04/28 08:55:16;;;;;;;;;;;;;;;21.21;38.03;101035.19;5131961;27;19968;-68
2023/04/28 08:57:42;;;;;;;;;;;;;;;21.23;37.67;101035.84;5122600;28;19976;-69
2023/04/28 09:00:07;;;;;;;;;;;;;;;21.23;37.71;101033.97;5137456;27;19954;-68
2023/04/28 09:02:33;;;;;;;;;;;;;;;21.26;37.70;101038.19;5129793;27;19922;-69
2023/04/28 09:04:58;;;;;;;;;;;;;;;21.26;37.68;101029.22;5139773;27;19919;-68
2023/04/28 09:07:23;;;;;;;;;;;;;;;21.29;37.61;101037.81;5135671;27;19919;-69
2023/04/28 09:09:48;;;;;;;;;;;;;;;21.29;37.89;101026.19;5133030;27;19994;-69
2023/04/28 09:12:14;;;;;;;;;;;;;;;21.31;37.62;101018.72;5132337;27;19923;-69
2023/04/28 09:14:39;;;;;;;;;;;;;;;21.34;37.52;101021.09;5131257;27;20276;-69
2023/04/28 09:17:15;;;;;;;;;;;;;;;21.36;37.76;101021.72;5115241;27;19990;-69
2023/04/28 09:19:43;;;;;;;;;;;;;;;21.37;37.79;101016.16;5130912;27;19918;-69
2023/04/28 09:22:09;;;;;;;;;;;;;;;21.39;37.70;101015.97;5133053;27;19930;-69
2023/04/28 09:24:42;;;;;;;;;;;;;;;21.39;37.66;101008.69;5132783;27;19916;-69
2023/04/28 09:27:10;;;;;;;;;;;;;;;21.42;37.56;101013.75;5136073;27;19923;-68
2023/04/28 09:29:35;;;;;;;;;;;;;;;21.42;37.42;101012.91;5133362;27;19979;-69
2023/04/28 09:32:30;;;;;;;;;;;;;;;21.42;37.67;101005.63;5136673;27;19927;-68
2023/04/28 09:34:55;;;;;;;;;;;;;;;21.43;37.33;100996.47;5120340;27;19912;-68
2023/04/28 09:37:29;;;;;;;;;;;;;;;21.45;37.57;100996.28;5130809;27;19923;-68
2023/04/28 09:39:55;;;;;;;;;;;;;;;21.45;37.72;100989.03;5134623;27;19912;-68
2023/04/28 09:42:31;;;;;;;;;;;;;;;21.38;37.48;100977.25;5115355;27;19950;-69
2023/04/28 09:44:56;;;;;;;;;;;;;;;21.48;37.66;100987.81;5131705;27;19920;-70
2023/04/28 09:47:21;;;;;;;;;;;;;;;21.49;37.79;100989.50;5132553;27;19922;-70
2023/04/28 09:49:56;;;;;;;;;;;;;;;21.49;37.47;100989.50;5132686;27;19923;-69
2023/04/28 09:52:22;;;;;;;;;;;;;;;21.52;37.72;100993.69;5131929;27;19915;-70
2023/04/28 09:54:48;;;;;;;;;;;;;;;21.55;37.46;100993.34;5134087;27;20353;-70
2023/04/28 09:57:14;;;;;;;;;;;;;;;21.55;37.74;100983.34;5110459;27;19919;-71
2023/04/28 09:59:39;;;;;;;;;;;;;;;21.55;37.54;100982.53;5119978;27;19911;-70
2023/04/28 10:02:05;;;;;;;;;;;;;;;21.57;37.62;100980.47;5114433;27;20416;-70
2023/04/28 10:04:32;;;;;;;;;;;;;;;21.59;37.90;100976.56;5132066;27;19934;-71
2023/04/28 10:06:58;;;;;;;;;;;;;;;21.61;37.61;100973.66;5118069;27;19951;-70
2023/04/28 10:09:25;;;;;;;;;;;;;;;21.62;37.80;100970.78;5124941;27;19923;-69
2023/04/28 10:11:51;;;;;;;;;;;;;;;21.65;38.19;100966.84;5113079;27;20548;-71
2023/04/28 10:14:16;;;;;;;;;;;;;;;21.68;38.09;100970.03;5128615;27;20005;-72
2023/04/28 10:16:41;;;;;;;;;;;;;;;21.70;37.68;100965.25;5114087;28;19919;-72
2023/04/28 10:19:07;;;;;;;;;;;;;;;21.72;37.73;100967.78;5130451;27;19951;-71
2023/04/28 10:21:32;;;;;;;;;;;;;;;21.74;37.91;100965.72;5134396;27;19922;-72
2023/04/28 10:24:00;;;;;;;;;;;;;;;21.75;37.80;100964.72;5129896;27;19912;-72
2023/04/28 10:26:44;;;;;;;;;;;;;;;21.74;38.46;100963.03;5135399;27;19911;-73
2023/04/28 10:29:09;;;;;;;;;;;;;;;21.72;38.44;100959.69;5134007;27;19918;-73
2023/04/28 10:31:35;;;;;;;;;;;;;;;21.70;38.41;100959.00;5112230;27;19912;-73
2023/04/28 10:34:20;;;;;;;;;;;;;;;21.71;38.23;100966.13;5101104;27;20002;-72
2023/04/28 10:36:47;;;;;;;;;;;;;;;21.70;38.29;100964.41;5131020;27;19959;-73
2023/04/28 10:39:13;;;;;;;;;;;;;;;21.70;38.29;100967.97;5115741;28;19916;-72
2023/04/28 10:41:38;;;;;;;;;;;;;;;21.68;38.45;100966.50;5128958;27;19916;-72
2023/04/28 10:44:22;;;;;;;;;;;;;;;21.70;38.66;100969.84;5131734;27;19911;-72
2023/04/28 10:47:08;;;;;;;;;;;;;;;21.66;38.88;100966.69;5130872;27;20021;-71
2023/04/28 10:49:52;;;;;;;;;;;;;;;21.60;38.83;100963.88;5135363;27;19915;-71
2023/04/28 10:52:33;;;;;;;;;;;;;;;21.55;39.24;100959.00;5129175;27;19919;-71
2023/04/28 10:55:17;;;;;;;;;;;;;;;21.52;39.04;100961.25;5136221;27;19912;-71
2023/04/28 10:57:43;;;;;;;;;;;;;;;21.47;39.15;100959.09;5126674;28;19912;-71
2023/04/28 11:00:29;;;;;;;;;;;;;;;21.46;39.44;100962.81;5136710;27;20093;-71
2023/04/28 11:02:55;;;;;;;;;;;;;;;21.43;39.45;100958.63;5129587;28;19923;-71
2023/04/28 11:05:20;;;;;;;;;;;;;;;21.41;39.26;100960.69;5111269;28;19942;-71
2023/04/28 11:08:04;;;;;;;;;;;;;;;21.40;39.31;100963.53;5133288;28;20019;-71
2023/04/28 11:10:52;;;;;;;;;;;;;;;21.45;39.27;100962.00;5134190;27;19915;-70
2023/04/28 11:13:25;;;;;;;;;;;;;;;21.44;39.29;100960.28;5127140;27;19976;-70
2023/04/28 11:16:01;;;;;;;;;;;;;;;21.41;39.48;100957.97;5137053;27;20295;-71
2023/04/28 11:18:26;;;;;;;;;;;;;;;21.41;39.56;100957.13;5133692;27;19911;-70
2023/04/28 11:20:51;;;;;;;;;;;;;;;21.41;39.39;100960.69;5115972;27;19975;-70
2023/04/28 11:23:17;;;;;;;;;;;;;;;21.26;39.46;100937.28;5102584;27;19950;-71
2023/04/28 11:25:55;;;;;;;;;;;;;;;21.44;39.57;100962.16;5130620;27;19915;-70
2023/04/28 11:28:20;;;;;;;;;;;;;;;21.44;39.51;100962.16;5134956;27;19912;-70
2023/04/28 11:30:45;;;;;;;;;;;;;;;21.43;39.49;100960.47;5133065;27;19969;-70
2023/04/28 11:33:10;;;;;;;;;;;;;;;21.42;39.42;100956.94;5138033;27;20418;-70
2023/04/28 11:35:42;;;;;;;;;;;;;;;21.42;39.24;100951.53;5116501;27;20016;-70
2023/04/28 11:38:07;;;;;;;;;;;;;;;21.44;39.32;100945.94;5136263;27;20372;-70
2023/04/28 11:40:32;;;;;;;;;;;;;;;21.44;39.24;100959.44;5134688;27;19916;-70
2023/04/28 11:43:02;;;;;;;;;;;;;;;21.46;39.42;100957.41;5115933;27;19971;-70
2023/04/28 11:45:28;;;;;;;;;;;;;;;21.46;39.37;100962.81;5131876;27;19919;-70
2023/04/28 11:47:53;;;;;;;;;;;;;;;21.46;39.01;100954.72;5134621;27;20599;-70
2023/04/28 11:50:34;;;;;;;;;;;;;;;21.47;39.52;100953.69;5116927;27;19916;-70
2023/04/28 11:52:59;;;;;;;;;;;;;;;21.46;39.55;100958.25;5132535;27;19995;-70
2023/04/28 11:55:27;;;;;;;;;;;;;;;21.48;39.32;100959.94;5123206;27;19927;-71
2023/04/28 11:58:10;;;;;;;;;;;;;;;21.48;39.51;100960.75;5131233;27;19951;-70
2023/04/28 12:00:36;;;;;;;;;;;;;;;21.48;39.39;100957.22;5134027;27;19911;-70
2023/04/28 12:03:06;;;;;;;;;;;;;;;21.48;39.60;100957.22;5122133;27;19919;-70
2023/04/28 12:05:33;;;;;;;;;;;;;;;21.49;39.58;100959.72;5133239;27;19926;-71
2023/04/28 12:07:58;;;;;;;;;;;;;;;21.50;39.41;100958.72;5119523;27;19926;-71
2023/04/28 12:10:23;;;;;;;;;;;;;;;21.52;39.23;100958.53;5116332;27;19916;-71
2023/04/28 12:12:48;;;;;;;;;;;;;;;21.52;39.38;100958.53;5132316;27;19926;-71
2023/04/28 12:15:14;;;;;;;;;;;;;;;21.53;39.14;100954.78;5133371;27;19924;-71
2023/04/28 12:17:40;;;;;;;;;;;;;;;21.53;39.21;100954.78;5135004;27;19919;-70
2023/04/28 12:20:06;;;;;;;;;;;;;;;21.53;39.26;100952.09;5128031;27;19926;-71
2023/04/28 12:22:42;;;;;;;;;;;;;;;21.54;39.56;100951.09;5134651;27;19911;-71
2023/04/28 12:25:08;;;;;;;;;;;;;;;21.55;39.27;100955.47;5131618;27;19920;-71
2023/04/28 12:27:35;;;;;;;;;;;;;;;21.55;39.21;100950.91;5139717;27;19927;-70
2023/04/28 12:30:00;;;;;;;;;;;;;;;21.54;39.25;100946.50;5114989;27;19961;-71
2023/04/28 12:32:38;;;;;;;;;;;;;;;21.54;39.57;100948.38;5123045;27;19915;-71